首页
METAR-TAF:

METAR-TAF

机场 :

Colville Lake, 西北特區, 加拿大

纬度: 67-01-16N, 经度: 126-07-43W, 海拔: 274米

当前天气观测

该预报发布于1小时和13分钟前的10:00 UTC
风速5节,风向
温度 16°C
湿度 68%
气压 1016 hPa
能見度: 14.5公里
天空无云

METAR: CYVL 011000Z AUTO 18005KT 9SM CLR 16/10 A3000 RMK SLP167 DENSITY ALT 1200FT

时间: 05:13 (11:13 UTC)


TAF: 丢失

超过4000个机场的气象观测和天气预报(METAR&TAF报告)。

可查询的气象台以黄色和红色小点在地图上表示。

将鼠标移到小点上方,可查看气象台名称。

然后点击查看天气观测和预报。

如需切换地图:点击带黑十字的绿色按钮放大地图;点击带横线的绿色按钮缩小地图;或者点击绿色箭头查看邻近地区的地图。


METAR-TAF: